sensor_id;sensor_type;location;lat;lon;timestamp;P1;durP1;ratioP1;P2;durP2;ratioP2
81026;SDS011;70506;49.320;8.446;2023-06-10T00:01:58;6.13;;;4.30;;
81026;SDS011;70506;49.320;8.446;2023-06-10T00:04:24;6.78;;;4.13;;
81026;SDS011;70506;49.320;8.446;2023-06-10T00:06:50;5.00;;;4.05;;
81026;SDS011;70506;49.320;8.446;2023-06-10T00:09:16;5.07;;;4.15;;
81026;SDS011;70506;49.320;8.446;2023-06-10T00:11:43;6.43;;;4.10;;
81026;SDS011;70506;49.320;8.446;2023-06-10T00:14:09;6.07;;;3.97;;
81026;SDS011;70506;49.320;8.446;2023-06-10T00:16:35;6.53;;;3.92;;
81026;SDS011;70506;49.320;8.446;2023-06-10T00:19:01;6.30;;;4.25;;
81026;SDS011;70506;49.320;8.446;2023-06-10T00:21:28;5.47;;;3.97;;
81026;SDS011;70506;49.320;8.446;2023-06-10T00:23:53;5.28;;;3.85;;
81026;SDS011;70506;49.320;8.446;2023-06-10T00:26:20;5.47;;;3.85;;
81026;SDS011;70506;49.320;8.446;2023-06-10T00:28:46;5.47;;;3.78;;
81026;SDS011;70506;49.320;8.446;2023-06-10T00:31:12;4.75;;;3.88;;
81026;SDS011;70506;49.320;8.446;2023-06-10T00:33:37;7.00;;;4.43;;
81026;SDS011;70506;49.320;8.446;2023-06-10T00:36:05;6.47;;;3.93;;
81026;SDS011;70506;49.320;8.446;2023-06-10T00:38:30;5.07;;;3.65;;
81026;SDS011;70506;49.320;8.446;2023-06-10T00:40:56;7.82;;;4.30;;
81026;SDS011;70506;49.320;8.446;2023-06-10T00:43:22;5.95;;;4.07;;
81026;SDS011;70506;49.320;8.446;2023-06-10T00:45:47;5.57;;;4.10;;
81026;SDS011;70506;49.320;8.446;2023-06-10T00:48:12;5.82;;;4.53;;
81026;SDS011;70506;49.320;8.446;2023-06-10T00:50:38;6.35;;;3.92;;
81026;SDS011;70506;49.320;8.446;2023-06-10T00:53:06;4.75;;;3.67;;
81026;SDS011;70506;49.320;8.446;2023-06-10T00:57:57;5.25;;;3.70;;
81026;SDS011;70506;49.320;8.446;2023-06-10T01:02:48;6.50;;;3.97;;
81026;SDS011;70506;49.320;8.446;2023-06-10T01:05:14;5.90;;;4.03;;
81026;SDS011;70506;49.320;8.446;2023-06-10T01:13:23;7.85;;;4.20;;
81026;SDS011;70506;49.320;8.446;2023-06-10T01:15:53;5.82;;;4.05;;
81026;SDS011;70506;49.320;8.446;2023-06-10T01:18:19;6.40;;;4.30;;
81026;SDS011;70506;49.320;8.446;2023-06-10T01:20:46;9.00;;;5.00;;
81026;SDS011;70506;49.320;8.446;2023-06-10T01:23:13;5.65;;;4.50;;
81026;SDS011;70506;49.320;8.446;2023-06-10T01:25:41;6.50;;;4.47;;
81026;SDS011;70506;49.320;8.446;2023-06-10T01:28:27;6.50;;;4.40;;
81026;SDS011;70506;49.320;8.446;2023-06-10T01:33:33;7.90;;;4.95;;
81026;SDS011;70506;49.320;8.446;2023-06-10T01:36:01;8.02;;;5.32;;
81026;SDS011;70506;49.320;8.446;2023-06-10T01:38:27;10.43;;;5.22;;
81026;SDS011;70506;49.320;8.446;2023-06-10T01:40:56;8.40;;;5.65;;
81026;SDS011;70506;49.320;8.446;2023-06-10T01:45:47;8.77;;;5.83;;
81026;SDS011;70506;49.320;8.446;2023-06-10T01:50:39;8.43;;;5.57;;
81026;SDS011;70506;49.320;8.446;2023-06-10T01:55:30;17.58;;;6.95;;
81026;SDS011;70506;49.320;8.446;2023-06-10T02:00:21;13.33;;;6.90;;
81026;SDS011;70506;49.320;8.446;2023-06-10T02:05:11;8.90;;;6.30;;
81026;SDS011;70506;49.320;8.446;2023-06-10T02:10:03;11.05;;;6.50;;
81026;SDS011;70506;49.320;8.446;2023-06-10T02:12:29;13.15;;;6.78;;
81026;SDS011;70506;49.320;8.446;2023-06-10T02:17:19;11.20;;;7.30;;
81026;SDS011;70506;49.320;8.446;2023-06-10T02:22:20;9.55;;;6.95;;
81026;SDS011;70506;49.320;8.446;2023-06-10T02:24:46;9.43;;;6.80;;
81026;SDS011;70506;49.320;8.446;2023-06-10T02:29:37;14.90;;;7.97;;
81026;SDS011;70506;49.320;8.446;2023-06-10T02:34:28;10.20;;;7.22;;
81026;SDS011;70506;49.320;8.446;2023-06-10T02:39:18;9.40;;;6.77;;
81026;SDS011;70506;49.320;8.446;2023-06-10T02:41:44;11.10;;;7.00;;
81026;SDS011;70506;49.320;8.446;2023-06-10T02:46:34;13.13;;;7.50;;
81026;SDS011;70506;49.320;8.446;2023-06-10T02:51:26;10.10;;;6.95;;
81026;SDS011;70506;49.320;8.446;2023-06-10T02:56:17;9.97;;;7.33;;
81026;SDS011;70506;49.320;8.446;2023-06-10T03:01:07;12.03;;;7.83;;
81026;SDS011;70506;49.320;8.446;2023-06-10T03:03:35;11.85;;;7.55;;
81026;SDS011;70506;49.320;8.446;2023-06-10T03:06:01;13.25;;;7.38;;
81026;SDS011;70506;49.320;8.446;2023-06-10T03:10:53;9.00;;;7.68;;
81026;SDS011;70506;49.320;8.446;2023-06-10T03:15:43;12.32;;;7.32;;
81026;SDS011;70506;49.320;8.446;2023-06-10T03:20:34;11.50;;;6.87;;
81026;SDS011;70506;49.320;8.446;2023-06-10T03:23:04;15.30;;;7.57;;
81026;SDS011;70506;49.320;8.446;2023-06-10T03:25:32;10.50;;;7.55;;
81026;SDS011;70506;49.320;8.446;2023-06-10T03:27:58;11.33;;;7.77;;
81026;SDS011;70506;49.320;8.446;2023-06-10T03:32:48;13.17;;;7.93;;
81026;SDS011;70506;49.320;8.446;2023-06-10T03:37:39;11.05;;;7.65;;
81026;SDS011;70506;49.320;8.446;2023-06-10T03:42:30;11.07;;;8.38;;
81026;SDS011;70506;49.320;8.446;2023-06-10T03:44:56;10.88;;;7.53;;
81026;SDS011;70506;49.320;8.446;2023-06-10T03:47:21;13.20;;;8.23;;
81026;SDS011;70506;49.320;8.446;2023-06-10T03:49:46;11.40;;;8.00;;
81026;SDS011;70506;49.320;8.446;2023-06-10T03:52:12;11.40;;;7.40;;
81026;SDS011;70506;49.320;8.446;2023-06-10T03:57:02;9.77;;;7.40;;
81026;SDS011;70506;49.320;8.446;2023-06-10T03:59:28;11.65;;;8.10;;
81026;SDS011;70506;49.320;8.446;2023-06-10T04:01:54;11.57;;;7.93;;
81026;SDS011;70506;49.320;8.446;2023-06-10T04:06:44;11.63;;;7.23;;
81026;SDS011;70506;49.320;8.446;2023-06-10T04:09:10;12.07;;;7.97;;
81026;SDS011;70506;49.320;8.446;2023-06-10T04:11:36;12.90;;;8.57;;
81026;SDS011;70506;49.320;8.446;2023-06-10T04:16:27;16.43;;;8.73;;
81026;SDS011;70506;49.320;8.446;2023-06-10T04:21:17;11.70;;;7.47;;
81026;SDS011;70506;49.320;8.446;2023-06-10T04:23:43;13.83;;;7.77;;
81026;SDS011;70506;49.320;8.446;2023-06-10T04:28:33;11.50;;;7.33;;
81026;SDS011;70506;49.320;8.446;2023-06-10T04:31:01;12.68;;;7.55;;
81026;SDS011;70506;49.320;8.446;2023-06-10T04:33:26;11.65;;;8.05;;
81026;SDS011;70506;49.320;8.446;2023-06-10T04:35:53;11.63;;;7.78;;
81026;SDS011;70506;49.320;8.446;2023-06-10T04:38:18;15.07;;;8.50;;
81026;SDS011;70506;49.320;8.446;2023-06-10T04:43:09;11.68;;;8.27;;
81026;SDS011;70506;49.320;8.446;2023-06-10T04:45:35;10.15;;;7.88;;
81026;SDS011;70506;49.320;8.446;2023-06-10T04:50:25;14.77;;;8.37;;
81026;SDS011;70506;49.320;8.446;2023-06-10T04:55:16;11.93;;;7.90;;
81026;SDS011;70506;49.320;8.446;2023-06-10T05:00:07;10.43;;;7.77;;
81026;SDS011;70506;49.320;8.446;2023-06-10T05:04:58;12.55;;;8.68;;
81026;SDS011;70506;49.320;8.446;2023-06-10T05:09:49;11.10;;;7.93;;
81026;SDS011;70506;49.320;8.446;2023-06-10T05:14:39;10.27;;;8.13;;
81026;SDS011;70506;49.320;8.446;2023-06-10T05:19:33;12.48;;;7.95;;
81026;SDS011;70506;49.320;8.446;2023-06-10T05:22:00;12.38;;;8.43;;
81026;SDS011;70506;49.320;8.446;2023-06-10T05:26:51;12.20;;;7.83;;
81026;SDS011;70506;49.320;8.446;2023-06-10T05:31:41;13.77;;;8.00;;
81026;SDS011;70506;49.320;8.446;2023-06-10T05:34:07;12.55;;;7.47;;
81026;SDS011;70506;49.320;8.446;2023-06-10T05:38:58;12.13;;;8.20;;
81026;SDS011;70506;49.320;8.446;2023-06-10T05:41:23;13.20;;;8.98;;
81026;SDS011;70506;49.320;8.446;2023-06-10T05:46:14;12.57;;;8.20;;
81026;SDS011;70506;49.320;8.446;2023-06-10T05:48:41;12.93;;;7.93;;
81026;SDS011;70506;49.320;8.446;2023-06-10T05:51:07;11.23;;;8.18;;
81026;SDS011;70506;49.320;8.446;2023-06-10T05:55:57;11.17;;;8.80;;
81026;SDS011;70506;49.320;8.446;2023-06-10T05:58:23;13.45;;;7.68;;
81026;SDS011;70506;49.320;8.446;2023-06-10T06:00:49;11.45;;;7.55;;
81026;SDS011;70506;49.320;8.446;2023-06-10T06:03:14;12.32;;;7.93;;
81026;SDS011;70506;49.320;8.446;2023-06-10T06:05:40;15.45;;;8.52;;
81026;SDS011;70506;49.320;8.446;2023-06-10T06:08:05;11.05;;;8.32;;
81026;SDS011;70506;49.320;8.446;2023-06-10T06:10:31;13.93;;;8.43;;
81026;SDS011;70506;49.320;8.446;2023-06-10T06:12:57;12.30;;;7.60;;
81026;SDS011;70506;49.320;8.446;2023-06-10T06:15:22;11.50;;;7.60;;
81026;SDS011;70506;49.320;8.446;2023-06-10T06:17:47;13.65;;;8.60;;
81026;SDS011;70506;49.320;8.446;2023-06-10T06:20:13;12.95;;;7.63;;
81026;SDS011;70506;49.320;8.446;2023-06-10T06:22:38;13.02;;;7.22;;
81026;SDS011;70506;49.320;8.446;2023-06-10T06:25:04;12.70;;;9.17;;
81026;SDS011;70506;49.320;8.446;2023-06-10T06:27:30;9.77;;;7.13;;
81026;SDS011;70506;49.320;8.446;2023-06-10T06:29:56;9.43;;;6.63;;
81026;SDS011;70506;49.320;8.446;2023-06-10T06:32:21;13.17;;;7.63;;
81026;SDS011;70506;49.320;8.446;2023-06-10T06:34:49;9.45;;;7.20;;
81026;SDS011;70506;49.320;8.446;2023-06-10T06:37:20;12.07;;;6.53;;
81026;SDS011;70506;49.320;8.446;2023-06-10T06:39:46;10.80;;;7.03;;
81026;SDS011;70506;49.320;8.446;2023-06-10T06:42:11;8.73;;;6.65;;
81026;SDS011;70506;49.320;8.446;2023-06-10T06:44:37;14.63;;;7.23;;
81026;SDS011;70506;49.320;8.446;2023-06-10T06:47:02;13.00;;;6.50;;
81026;SDS011;70506;49.320;8.446;2023-06-10T06:49:27;15.10;;;6.60;;
81026;SDS011;70506;49.320;8.446;2023-06-10T06:51:53;12.75;;;6.85;;
81026;SDS011;70506;49.320;8.446;2023-06-10T06:54:18;12.40;;;6.40;;
81026;SDS011;70506;49.320;8.446;2023-06-10T06:56:44;9.47;;;5.30;;
81026;SDS011;70506;49.320;8.446;2023-06-10T06:59:09;10.20;;;5.60;;
81026;SDS011;70506;49.320;8.446;2023-06-10T07:01:35;11.55;;;5.57;;
81026;SDS011;70506;49.320;8.446;2023-06-10T07:04:00;10.70;;;4.90;;
81026;SDS011;70506;49.320;8.446;2023-06-10T07:06:25;9.63;;;5.07;;
81026;SDS011;70506;49.320;8.446;2023-06-10T07:08:50;11.93;;;5.20;;
81026;SDS011;70506;49.320;8.446;2023-06-10T07:11:16;7.70;;;4.97;;
81026;SDS011;70506;49.320;8.446;2023-06-10T07:13:42;9.00;;;5.03;;
81026;SDS011;70506;49.320;8.446;2023-06-10T07:16:08;6.68;;;5.13;;
81026;SDS011;70506;49.320;8.446;2023-06-10T07:18:33;8.87;;;4.97;;
81026;SDS011;70506;49.320;8.446;2023-06-10T07:20:58;7.53;;;5.00;;
81026;SDS011;70506;49.320;8.446;2023-06-10T07:23:24;7.00;;;5.17;;
81026;SDS011;70506;49.320;8.446;2023-06-10T07:25:49;6.40;;;4.80;;
81026;SDS011;70506;49.320;8.446;2023-06-10T07:28:15;6.97;;;4.80;;
81026;SDS011;70506;49.320;8.446;2023-06-10T07:30:40;6.20;;;4.60;;
81026;SDS011;70506;49.320;8.446;2023-06-10T07:33:05;6.43;;;4.80;;
81026;SDS011;70506;49.320;8.446;2023-06-10T07:35:32;5.70;;;4.65;;
81026;SDS011;70506;49.320;8.446;2023-06-10T07:37:58;7.35;;;4.70;;
81026;SDS011;70506;49.320;8.446;2023-06-10T07:40:23;6.07;;;4.83;;
81026;SDS011;70506;49.320;8.446;2023-06-10T07:42:49;7.40;;;4.85;;
81026;SDS011;70506;49.320;8.446;2023-06-10T07:45:14;8.98;;;4.65;;
81026;SDS011;70506;49.320;8.446;2023-06-10T07:50:30;8.35;;;5.00;;
81026;SDS011;70506;49.320;8.446;2023-06-10T07:52:55;6.57;;;4.28;;
81026;SDS011;70506;49.320;8.446;2023-06-10T07:55:21;5.43;;;4.15;;
81026;SDS011;70506;49.320;8.446;2023-06-10T07:57:46;5.40;;;3.93;;
81026;SDS011;70506;49.320;8.446;2023-06-10T08:00:11;5.53;;;3.67;;
81026;SDS011;70506;49.320;8.446;2023-06-10T08:02:37;6.57;;;3.67;;
81026;SDS011;70506;49.320;8.446;2023-06-10T08:05:02;5.30;;;3.33;;
81026;SDS011;70506;49.320;8.446;2023-06-10T08:07:28;3.90;;;3.03;;
81026;SDS011;70506;49.320;8.446;2023-06-10T08:09:53;5.03;;;3.63;;
81026;SDS011;70506;49.320;8.446;2023-06-10T08:12:18;5.93;;;3.33;;
81026;SDS011;70506;49.320;8.446;2023-06-10T08:14:45;4.35;;;3.47;;
81026;SDS011;70506;49.320;8.446;2023-06-10T08:17:10;4.47;;;3.63;;
81026;SDS011;70506;49.320;8.446;2023-06-10T08:19:36;5.25;;;3.53;;
81026;SDS011;70506;49.320;8.446;2023-06-10T08:22:01;5.37;;;3.33;;
81026;SDS011;70506;49.320;8.446;2023-06-10T08:24:26;5.00;;;3.47;;
81026;SDS011;70506;49.320;8.446;2023-06-10T08:26:52;4.47;;;3.22;;
81026;SDS011;70506;49.320;8.446;2023-06-10T08:29:17;5.30;;;3.40;;
81026;SDS011;70506;49.320;8.446;2023-06-10T08:31:43;4.63;;;3.73;;
81026;SDS011;70506;49.320;8.446;2023-06-10T08:34:09;5.10;;;3.20;;
81026;SDS011;70506;49.320;8.446;2023-06-10T08:36:34;4.85;;;3.20;;
81026;SDS011;70506;49.320;8.446;2023-06-10T08:39:00;5.00;;;3.72;;
81026;SDS011;70506;49.320;8.446;2023-06-10T08:41:26;7.47;;;3.72;;
81026;SDS011;70506;49.320;8.446;2023-06-10T08:44:01;4.72;;;3.65;;
81026;SDS011;70506;49.320;8.446;2023-06-10T08:46:31;4.97;;;3.78;;
81026;SDS011;70506;49.320;8.446;2023-06-10T08:48:57;4.40;;;3.40;;
81026;SDS011;70506;49.320;8.446;2023-06-10T08:51:28;5.03;;;3.40;;
81026;SDS011;70506;49.320;8.446;2023-06-10T08:53:59;4.18;;;3.38;;
81026;SDS011;70506;49.320;8.446;2023-06-10T08:56:27;5.18;;;3.55;;
81026;SDS011;70506;49.320;8.446;2023-06-10T08:58:53;4.65;;;3.42;;
81026;SDS011;70506;49.320;8.446;2023-06-10T09:01:20;6.50;;;4.00;;
81026;SDS011;70506;49.320;8.446;2023-06-10T09:03:45;4.65;;;3.47;;
81026;SDS011;70506;49.320;8.446;2023-06-10T09:06:10;6.50;;;3.80;;
81026;SDS011;70506;49.320;8.446;2023-06-10T09:08:36;4.43;;;3.60;;
81026;SDS011;70506;49.320;8.446;2023-06-10T09:11:01;6.93;;;3.83;;
81026;SDS011;70506;49.320;8.446;2023-06-10T09:13:27;4.25;;;3.53;;
81026;SDS011;70506;49.320;8.446;2023-06-10T09:15:52;6.03;;;3.70;;
81026;SDS011;70506;49.320;8.446;2023-06-10T09:18:18;5.68;;;3.70;;
81026;SDS011;70506;49.320;8.446;2023-06-10T09:20:43;5.70;;;3.88;;
81026;SDS011;70506;49.320;8.446;2023-06-10T09:23:09;5.60;;;3.45;;
81026;SDS011;70506;49.320;8.446;2023-06-10T09:25:38;7.93;;;3.30;;
81026;SDS011;70506;49.320;8.446;2023-06-10T09:28:04;4.65;;;3.47;;
81026;SDS011;70506;49.320;8.446;2023-06-10T09:30:30;5.03;;;3.30;;
81026;SDS011;70506;49.320;8.446;2023-06-10T09:33:03;7.90;;;3.55;;
81026;SDS011;70506;49.320;8.446;2023-06-10T09:35:35;7.70;;;4.43;;
81026;SDS011;70506;49.320;8.446;2023-06-10T09:38:00;6.20;;;3.58;;
81026;SDS011;70506;49.320;8.446;2023-06-10T09:40:27;7.40;;;3.90;;
81026;SDS011;70506;49.320;8.446;2023-06-10T09:42:53;4.78;;;3.88;;
81026;SDS011;70506;49.320;8.446;2023-06-10T09:45:20;6.25;;;4.30;;
81026;SDS011;70506;49.320;8.446;2023-06-10T09:47:46;5.03;;;3.58;;
81026;SDS011;70506;49.320;8.446;2023-06-10T09:50:12;5.55;;;3.72;;
81026;SDS011;70506;49.320;8.446;2023-06-10T09:52:38;8.93;;;4.13;;
81026;SDS011;70506;49.320;8.446;2023-06-10T09:55:04;5.63;;;4.25;;
81026;SDS011;70506;49.320;8.446;2023-06-10T09:57:33;4.40;;;3.42;;
81026;SDS011;70506;49.320;8.446;2023-06-10T09:59:59;6.40;;;3.60;;
81026;SDS011;70506;49.320;8.446;2023-06-10T10:02:24;7.13;;;3.63;;
81026;SDS011;70506;49.320;8.446;2023-06-10T10:04:50;5.53;;;4.05;;
81026;SDS011;70506;49.320;8.446;2023-06-10T10:07:15;5.50;;;3.63;;
81026;SDS011;70506;49.320;8.446;2023-06-10T10:09:41;4.70;;;3.70;;
81026;SDS011;70506;49.320;8.446;2023-06-10T10:12:10;6.43;;;4.03;;
81026;SDS011;70506;49.320;8.446;2023-06-10T10:14:39;7.43;;;4.15;;
81026;SDS011;70506;49.320;8.446;2023-06-10T10:17:10;6.05;;;4.60;;
81026;SDS011;70506;49.320;8.446;2023-06-10T10:20:22;5.00;;;3.70;;
81026;SDS011;70506;49.320;8.446;2023-06-10T10:22:38;5.72;;;3.78;;
81026;SDS011;70506;49.320;8.446;2023-06-10T10:25:05;5.65;;;3.78;;
81026;SDS011;70506;49.320;8.446;2023-06-10T10:30:44;5.68;;;4.20;;
81026;SDS011;70506;49.320;8.446;2023-06-10T10:35:53;6.32;;;4.00;;
81026;SDS011;70506;49.320;8.446;2023-06-10T10:38:18;5.43;;;4.00;;
81026;SDS011;70506;49.320;8.446;2023-06-10T10:40:44;5.10;;;3.70;;
81026;SDS011;70506;49.320;8.446;2023-06-10T10:43:10;5.05;;;3.70;;
81026;SDS011;70506;49.320;8.446;2023-06-10T10:45:36;5.35;;;4.03;;
81026;SDS011;70506;49.320;8.446;2023-06-10T10:48:04;4.80;;;3.88;;
81026;SDS011;70506;49.320;8.446;2023-06-10T10:50:35;4.93;;;3.80;;
81026;SDS011;70506;49.320;8.446;2023-06-10T10:53:01;4.32;;;3.65;;
81026;SDS011;70506;49.320;8.446;2023-06-10T10:55:27;6.60;;;3.55;;
81026;SDS011;70506;49.320;8.446;2023-06-10T10:58:03;6.60;;;3.67;;
81026;SDS011;70506;49.320;8.446;2023-06-10T11:00:30;4.63;;;3.50;;
81026;SDS011;70506;49.320;8.446;2023-06-10T11:05:40;6.40;;;3.63;;
81026;SDS011;70506;49.320;8.446;2023-06-10T11:08:09;4.95;;;3.47;;
81026;SDS011;70506;49.320;8.446;2023-06-10T11:10:41;5.25;;;3.53;;
81026;SDS011;70506;49.320;8.446;2023-06-10T11:13:15;4.65;;;3.90;;
81026;SDS011;70506;49.320;8.446;2023-06-10T11:15:44;4.82;;;3.65;;
81026;SDS011;70506;49.320;8.446;2023-06-10T11:25:51;7.85;;;4.03;;
81026;SDS011;70506;49.320;8.446;2023-06-10T11:28:37;4.75;;;3.45;;
81026;SDS011;70506;49.320;8.446;2023-06-10T11:31:03;5.47;;;3.72;;
81026;SDS011;70506;49.320;8.446;2023-06-10T11:33:28;4.33;;;3.27;;
81026;SDS011;70506;49.320;8.446;2023-06-10T11:35:53;5.63;;;3.10;;
81026;SDS011;70506;49.320;8.446;2023-06-10T11:38:21;5.75;;;3.50;;
81026;SDS011;70506;49.320;8.446;2023-06-10T11:40:49;5.47;;;3.42;;
81026;SDS011;70506;49.320;8.446;2023-06-10T11:43:16;8.30;;;3.00;;
81026;SDS011;70506;49.320;8.446;2023-06-10T11:45:42;5.80;;;3.90;;
81026;SDS011;70506;49.320;8.446;2023-06-10T11:48:08;9.25;;;3.47;;
81026;SDS011;70506;49.320;8.446;2023-06-10T11:50:34;3.67;;;2.92;;
81026;SDS011;70506;49.320;8.446;2023-06-10T11:52:59;4.75;;;3.30;;
81026;SDS011;70506;49.320;8.446;2023-06-10T11:55:25;4.63;;;3.40;;
81026;SDS011;70506;49.320;8.446;2023-06-10T11:58:05;4.18;;;3.35;;
81026;SDS011;70506;49.320;8.446;2023-06-10T12:00:30;6.00;;;3.10;;
81026;SDS011;70506;49.320;8.446;2023-06-10T12:02:56;5.43;;;3.67;;
81026;SDS011;70506;49.320;8.446;2023-06-10T12:05:23;6.70;;;3.53;;
81026;SDS011;70506;49.320;8.446;2023-06-10T12:07:49;3.78;;;3.10;;
81026;SDS011;70506;49.320;8.446;2023-06-10T12:10:14;5.10;;;3.40;;
81026;SDS011;70506;49.320;8.446;2023-06-10T12:12:41;6.97;;;3.40;;
81026;SDS011;70506;49.320;8.446;2023-06-10T12:15:06;3.47;;;3.05;;
81026;SDS011;70506;49.320;8.446;2023-06-10T12:19:59;4.90;;;3.30;;
81026;SDS011;70506;49.320;8.446;2023-06-10T12:22:25;3.85;;;3.30;;
81026;SDS011;70506;49.320;8.446;2023-06-10T12:24:58;6.80;;;3.10;;
81026;SDS011;70506;49.320;8.446;2023-06-10T12:27:24;5.43;;;2.95;;
81026;SDS011;70506;49.320;8.446;2023-06-10T12:29:51;4.50;;;2.92;;
81026;SDS011;70506;49.320;8.446;2023-06-10T12:32:18;3.92;;;2.97;;
81026;SDS011;70506;49.320;8.446;2023-06-10T12:34:45;4.57;;;2.92;;
81026;SDS011;70506;49.320;8.446;2023-06-10T12:37:12;4.72;;;3.17;;
81026;SDS011;70506;49.320;8.446;2023-06-10T12:39:41;4.35;;;3.15;;
81026;SDS011;70506;49.320;8.446;2023-06-10T12:42:12;6.18;;;3.10;;
81026;SDS011;70506;49.320;8.446;2023-06-10T12:44:40;4.28;;;2.70;;
81026;SDS011;70506;49.320;8.446;2023-06-10T12:47:08;3.45;;;2.63;;
81026;SDS011;70506;49.320;8.446;2023-06-10T12:49:35;5.22;;;2.72;;
81026;SDS011;70506;49.320;8.446;2023-06-10T12:52:01;3.80;;;3.00;;
81026;SDS011;70506;49.320;8.446;2023-06-10T12:54:26;3.50;;;2.50;;
81026;SDS011;70506;49.320;8.446;2023-06-10T12:56:52;6.68;;;2.55;;
81026;SDS011;70506;49.320;8.446;2023-06-10T12:59:18;3.78;;;2.47;;
81026;SDS011;70506;49.320;8.446;2023-06-10T13:01:43;3.25;;;2.40;;
81026;SDS011;70506;49.320;8.446;2023-06-10T13:04:08;2.90;;;2.40;;
81026;SDS011;70506;49.320;8.446;2023-06-10T13:06:34;3.70;;;2.63;;
81026;SDS011;70506;49.320;8.446;2023-06-10T13:09:03;3.42;;;2.17;;
81026;SDS011;70506;49.320;8.446;2023-06-10T13:11:31;3.67;;;2.45;;
81026;SDS011;70506;49.320;8.446;2023-06-10T13:13:56;3.58;;;2.42;;
81026;SDS011;70506;49.320;8.446;2023-06-10T13:16:22;3.50;;;2.20;;
81026;SDS011;70506;49.320;8.446;2023-06-10T13:18:47;3.85;;;2.70;;
81026;SDS011;70506;49.320;8.446;2023-06-10T13:21:12;5.37;;;2.43;;
81026;SDS011;70506;49.320;8.446;2023-06-10T13:23:38;3.10;;;2.27;;
81026;SDS011;70506;49.320;8.446;2023-06-10T13:26:03;6.18;;;2.38;;
81026;SDS011;70506;49.320;8.446;2023-06-10T13:28:28;5.57;;;2.50;;
81026;SDS011;70506;49.320;8.446;2023-06-10T13:30:54;2.70;;;2.23;;
81026;SDS011;70506;49.320;8.446;2023-06-10T13:33:19;4.45;;;2.35;;
81026;SDS011;70506;49.320;8.446;2023-06-10T13:35:44;6.47;;;2.47;;
81026;SDS011;70506;49.320;8.446;2023-06-10T13:38:10;4.25;;;2.70;;
81026;SDS011;70506;49.320;8.446;2023-06-10T13:40:35;6.53;;;2.73;;
81026;SDS011;70506;49.320;8.446;2023-06-10T13:43:00;5.13;;;2.87;;
81026;SDS011;70506;49.320;8.446;2023-06-10T13:45:26;3.97;;;2.90;;
81026;SDS011;70506;49.320;8.446;2023-06-10T13:47:53;3.58;;;3.10;;
81026;SDS011;70506;49.320;8.446;2023-06-10T13:50:18;4.10;;;3.10;;
81026;SDS011;70506;49.320;8.446;2023-06-10T13:52:44;4.65;;;2.65;;
81026;SDS011;70506;49.320;8.446;2023-06-10T13:55:09;4.07;;;2.85;;
81026;SDS011;70506;49.320;8.446;2023-06-10T13:57:34;4.85;;;2.70;;
81026;SDS011;70506;49.320;8.446;2023-06-10T14:00:00;11.85;;;2.88;;
81026;SDS011;70506;49.320;8.446;2023-06-10T14:02:25;3.42;;;2.58;;
81026;SDS011;70506;49.320;8.446;2023-06-10T14:04:51;4.95;;;2.60;;
81026;SDS011;70506;49.320;8.446;2023-06-10T14:07:16;6.10;;;2.50;;
81026;SDS011;70506;49.320;8.446;2023-06-10T14:09:42;3.67;;;2.20;;
81026;SDS011;70506;49.320;8.446;2023-06-10T14:12:08;4.72;;;2.60;;
81026;SDS011;70506;49.320;8.446;2023-06-10T14:14:34;3.15;;;2.53;;
81026;SDS011;70506;49.320;8.446;2023-06-10T14:16:59;4.18;;;2.80;;
81026;SDS011;70506;49.320;8.446;2023-06-10T14:19:24;3.00;;;2.30;;
81026;SDS011;70506;49.320;8.446;2023-06-10T14:21:50;5.53;;;2.65;;
81026;SDS011;70506;49.320;8.446;2023-06-10T14:24:18;3.63;;;2.40;;
81026;SDS011;70506;49.320;8.446;2023-06-10T14:26:43;7.55;;;2.55;;
81026;SDS011;70506;49.320;8.446;2023-06-10T14:29:09;3.58;;;2.60;;
81026;SDS011;70506;49.320;8.446;2023-06-10T14:31:34;3.92;;;2.20;;
81026;SDS011;70506;49.320;8.446;2023-06-10T14:34:03;5.38;;;2.17;;
81026;SDS011;70506;49.320;8.446;2023-06-10T14:36:30;2.45;;;2.00;;
81026;SDS011;70506;49.320;8.446;2023-06-10T14:38:56;4.57;;;2.40;;
81026;SDS011;70506;49.320;8.446;2023-06-10T14:41:24;4.47;;;2.15;;
81026;SDS011;70506;49.320;8.446;2023-06-10T14:43:49;2.95;;;2.17;;
81026;SDS011;70506;49.320;8.446;2023-06-10T14:46:15;3.03;;;1.90;;
81026;SDS011;70506;49.320;8.446;2023-06-10T14:48:43;3.70;;;2.33;;
81026;SDS011;70506;49.320;8.446;2023-06-10T14:51:09;5.53;;;2.72;;
81026;SDS011;70506;49.320;8.446;2023-06-10T14:53:34;3.60;;;2.60;;
81026;SDS011;70506;49.320;8.446;2023-06-10T14:55:59;6.13;;;2.30;;
81026;SDS011;70506;49.320;8.446;2023-06-10T14:58:25;2.70;;;2.37;;
81026;SDS011;70506;49.320;8.446;2023-06-10T15:00:53;6.10;;;2.40;;
81026;SDS011;70506;49.320;8.446;2023-06-10T15:03:18;4.30;;;2.60;;
81026;SDS011;70506;49.320;8.446;2023-06-10T15:05:44;4.20;;;2.63;;
81026;SDS011;70506;49.320;8.446;2023-06-10T15:08:09;2.20;;;2.00;;
81026;SDS011;70506;49.320;8.446;2023-06-10T15:10:37;4.50;;;2.63;;
81026;SDS011;70506;49.320;8.446;2023-06-10T15:13:03;2.60;;;2.08;;
81026;SDS011;70506;49.320;8.446;2023-06-10T15:15:28;3.27;;;2.30;;
81026;SDS011;70506;49.320;8.446;2023-06-10T15:17:53;2.38;;;2.08;;
81026;SDS011;70506;49.320;8.446;2023-06-10T15:20:21;3.13;;;2.58;;
81026;SDS011;70506;49.320;8.446;2023-06-10T15:22:47;3.53;;;2.45;;
81026;SDS011;70506;49.320;8.446;2023-06-10T15:25:12;4.65;;;2.47;;
81026;SDS011;70506;49.320;8.446;2023-06-10T15:27:37;3.10;;;2.20;;
81026;SDS011;70506;49.320;8.446;2023-06-10T15:30:06;4.82;;;2.60;;
81026;SDS011;70506;49.320;8.446;2023-06-10T15:32:32;3.85;;;2.50;;
81026;SDS011;70506;49.320;8.446;2023-06-10T15:34:57;3.30;;;2.43;;
81026;SDS011;70506;49.320;8.446;2023-06-10T15:37:22;4.15;;;2.30;;
81026;SDS011;70506;49.320;8.446;2023-06-10T15:39:48;3.78;;;2.35;;
81026;SDS011;70506;49.320;8.446;2023-06-10T15:42:13;4.80;;;3.00;;
81026;SDS011;70506;49.320;8.446;2023-06-10T15:44:39;3.25;;;2.67;;
81026;SDS011;70506;49.320;8.446;2023-06-10T15:47:04;4.13;;;2.77;;
81026;SDS011;70506;49.320;8.446;2023-06-10T15:49:29;4.38;;;2.53;;
81026;SDS011;70506;49.320;8.446;2023-06-10T15:51:55;3.90;;;2.70;;
81026;SDS011;70506;49.320;8.446;2023-06-10T15:54:20;3.37;;;2.90;;
81026;SDS011;70506;49.320;8.446;2023-06-10T15:56:45;5.63;;;2.80;;
81026;SDS011;70506;49.320;8.446;2023-06-10T15:59:11;3.33;;;2.60;;
81026;SDS011;70506;49.320;8.446;2023-06-10T16:01:36;3.40;;;2.50;;
81026;SDS011;70506;49.320;8.446;2023-06-10T16:04:02;6.05;;;2.67;;
81026;SDS011;70506;49.320;8.446;2023-06-10T16:06:27;4.07;;;2.47;;
81026;SDS011;70506;49.320;8.446;2023-06-10T16:08:53;3.17;;;2.60;;
81026;SDS011;70506;49.320;8.446;2023-06-10T16:11:18;4.27;;;2.57;;
81026;SDS011;70506;49.320;8.446;2023-06-10T16:13:43;3.37;;;2.80;;
81026;SDS011;70506;49.320;8.446;2023-06-10T16:16:08;4.18;;;2.92;;
81026;SDS011;70506;49.320;8.446;2023-06-10T16:18:35;8.30;;;2.60;;
81026;SDS011;70506;49.320;8.446;2023-06-10T16:21:00;5.00;;;2.85;;
81026;SDS011;70506;49.320;8.446;2023-06-10T16:23:25;4.60;;;2.70;;
81026;SDS011;70506;49.320;8.446;2023-06-10T16:25:51;3.92;;;2.78;;
81026;SDS011;70506;49.320;8.446;2023-06-10T16:28:16;4.03;;;2.60;;
81026;SDS011;70506;49.320;8.446;2023-06-10T16:30:41;5.20;;;2.80;;
81026;SDS011;70506;49.320;8.446;2023-06-10T16:33:07;4.45;;;2.60;;
81026;SDS011;70506;49.320;8.446;2023-06-10T16:35:32;4.65;;;2.90;;
81026;SDS011;70506;49.320;8.446;2023-06-10T16:37:57;5.47;;;2.72;;
81026;SDS011;70506;49.320;8.446;2023-06-10T16:40:23;4.25;;;3.15;;
81026;SDS011;70506;49.320;8.446;2023-06-10T16:42:48;3.10;;;2.80;;
81026;SDS011;70506;49.320;8.446;2023-06-10T16:45:14;4.50;;;3.03;;
81026;SDS011;70506;49.320;8.446;2023-06-10T16:47:39;4.32;;;2.78;;
81026;SDS011;70506;49.320;8.446;2023-06-10T16:50:04;4.17;;;3.10;;